createdAt,value
2023-01-01T00:00:50.086Z,16.9
2023-01-01T00:30:51.218Z,16.8
2023-01-01T00:40:51.585Z,16.5
2023-01-01T00:50:52.130Z,16.5
2023-01-01T01:00:52.716Z,16.7
2023-01-01T01:10:53.342Z,16.6
2023-01-01T01:20:54.158Z,16.5
2023-01-01T01:30:54.252Z,16.5
2023-01-01T01:40:54.952Z,16.2
2023-01-01T01:50:55.482Z,16.1
2023-01-01T02:00:55.615Z,16
2023-01-01T02:10:56.594Z,15.9
2023-01-01T02:20:57.467Z,15.9
2023-01-01T02:30:58.268Z,15.8
2023-01-01T02:40:59.173Z,15.7
2023-01-01T02:50:59.694Z,15.7
2023-01-01T03:01:00.399Z,15.6
2023-01-01T03:11:00.571Z,15.5
2023-01-01T03:21:00.713Z,15.5
2023-01-01T03:31:01.735Z,15.5
2023-01-01T03:41:02.023Z,15.5
2023-01-01T03:51:02.875Z,15.6
2023-01-01T04:01:04.027Z,15.5
2023-01-01T04:11:04.230Z,15.4
2023-01-01T04:21:05.301Z,15.5
2023-01-01T04:31:05.777Z,15.4
2023-01-01T04:41:06.454Z,15.3
2023-01-01T04:51:06.983Z,15.3
2023-01-01T05:01:07.649Z,15.3
2023-01-01T05:11:08.042Z,15.3
2023-01-01T05:21:08.693Z,15.2
2023-01-01T05:31:09.520Z,15.2
2023-01-01T05:41:09.737Z,15.1
2023-01-01T05:51:10.347Z,15
2023-01-01T06:01:11.238Z,15.1
2023-01-01T06:11:12.097Z,14.9
2023-01-01T06:21:12.875Z,14.7
2023-01-01T06:31:13.664Z,14.6
2023-01-01T06:41:14.374Z,14.8
2023-01-01T06:51:14.557Z,14.9
2023-01-01T07:01:15.738Z,14.9
2023-01-01T07:11:16.097Z,14.6
2023-01-01T07:21:16.301Z,14.4
2023-01-01T07:31:16.427Z,14.4
2023-01-01T07:41:17.387Z,14.2
2023-01-01T07:51:18.170Z,13.8
2023-01-01T08:01:19.450Z,13.5
2023-01-01T08:11:20.029Z,13.4
2023-01-01T08:31:20.532Z,13.3
2023-01-01T08:41:21.507Z,13.5
2023-01-01T08:51:22.491Z,13.6
2023-01-01T09:01:23.113Z,13.8
2023-01-01T09:11:23.352Z,13.9
2023-01-01T09:21:23.887Z,14
2023-01-01T09:31:24.559Z,14
2023-01-01T09:41:25.573Z,14.1
2023-01-01T09:51:26.247Z,14.2
2023-01-01T10:01:26.958Z,14.2
2023-01-01T10:11:27.445Z,14.1
2023-01-01T10:21:28.425Z,14.2
2023-01-01T10:31:28.630Z,14.2
2023-01-01T10:41:28.878Z,14.2
2023-01-01T10:51:29.432Z,14.2
2023-01-01T11:11:30.722Z,14.3
2023-01-01T11:21:31.079Z,14.3
2023-01-01T11:31:31.806Z,14.3
2023-01-01T11:41:32.346Z,14.3
2023-01-01T11:51:32.824Z,14.4
2023-01-01T12:01:33.010Z,14.4
2023-01-01T12:11:33.045Z,14.4
2023-01-01T12:21:33.491Z,14.4
2023-01-01T12:31:34.379Z,14.4
2023-01-01T12:41:34.892Z,14.4
2023-01-01T12:51:35.225Z,14.4
2023-01-01T13:01:35.461Z,14.4
2023-01-01T13:11:39.839Z,14.3
2023-01-01T13:21:36.925Z,14.3
2023-01-01T13:31:37.123Z,14.2
2023-01-01T13:41:37.913Z,14.2
2023-01-01T13:52:04.574Z,14.1
2023-01-01T14:01:38.478Z,14.1
2023-01-01T14:11:38.939Z,14
2023-01-01T14:21:39.422Z,14
2023-01-01T14:31:39.688Z,14
2023-01-01T14:41:40.263Z,13.9
2023-01-01T14:51:49.324Z,13.9
2023-01-01T15:01:50.053Z,13.9
2023-01-01T15:11:50.724Z,13.8
2023-01-01T15:31:51.892Z,13.6
2023-01-01T15:51:53.423Z,13.4
2023-01-01T16:01:53.614Z,13.4
2023-01-01T16:11:54.297Z,13.3
2023-01-01T16:21:54.456Z,13.1
2023-01-01T16:31:54.983Z,13
2023-01-01T16:51:56.106Z,12.7
2023-01-01T17:01:57.016Z,12.6
2023-01-01T17:11:57.296Z,12.3
2023-01-01T17:21:57.969Z,11.8
2023-01-01T17:41:59.263Z,11.4
2023-01-01T18:32:02.134Z,11.1
2023-01-01T18:42:02.549Z,11
2023-01-01T18:52:03.439Z,11
2023-01-01T19:02:04.093Z,11
2023-01-01T19:12:04.539Z,11
2023-01-01T19:22:05.157Z,11
2023-01-01T19:32:05.425Z,11.1
2023-01-01T19:42:05.731Z,11.2
2023-01-01T19:52:06.506Z,11.2
2023-01-01T20:02:45.157Z,11.2
2023-01-01T20:12:06.965Z,11.2
2023-01-01T20:22:07.558Z,11.3
2023-01-01T20:32:07.847Z,11.3
2023-01-01T20:42:08.749Z,11.4
2023-01-01T20:52:09.640Z,11.4
2023-01-01T21:02:10.305Z,11.5
2023-01-01T21:12:10.270Z,11.5
2023-01-01T21:22:10.465Z,11.7
2023-01-01T21:32:11.391Z,11.7
2023-01-01T21:42:12.155Z,12
2023-01-01T21:52:12.959Z,12.1
2023-01-01T22:02:13.318Z,12.4
2023-01-01T22:12:14.165Z,12.7
2023-01-01T22:22:15.183Z,12.8
2023-01-01T22:32:15.557Z,12.9
2023-01-01T22:42:16.576Z,13
2023-01-01T22:52:16.880Z,13.2
2023-01-01T23:02:17.942Z,13.5
2023-01-01T23:12:18.452Z,13.5
2023-01-01T23:22:18.944Z,13.4
2023-01-01T23:32:19.954Z,13.4
2023-01-01T23:42:20.447Z,13.3
2023-01-01T23:52:20.873Z,13.5
